createdAt,value
2018-11-28T00:00:12.770Z,37.87
2018-11-28T00:02:41.830Z,30.80
2018-11-28T00:05:12.273Z,35.33
2018-11-28T00:07:41.242Z,31.60
2018-11-28T00:10:12.014Z,29.73
2018-11-28T00:12:40.766Z,24.30
2018-11-28T00:15:11.354Z,25.93
2018-11-28T00:17:39.966Z,24.63
2018-11-28T00:20:13.502Z,23.67
2018-11-28T00:22:42.294Z,23.57
2018-11-28T00:25:11.662Z,24.83
2018-11-28T00:27:40.287Z,26.73
2018-11-28T00:30:12.982Z,26.60
2018-11-28T00:32:41.926Z,25.93
2018-11-28T00:35:13.553Z,22.40
2018-11-28T00:37:42.122Z,22.67
2018-11-28T00:40:14.362Z,24.33
2018-11-28T00:42:42.997Z,24.47
2018-11-28T00:45:13.165Z,24.33
2018-11-28T00:47:41.753Z,22.47
2018-11-28T00:50:11.530Z,23.40
2018-11-28T00:52:40.122Z,21.93
2018-11-28T00:55:10.234Z,23.90
2018-11-28T00:57:38.792Z,24.33
2018-11-28T01:00:13.519Z,25.27
2018-11-28T01:02:42.378Z,24.97
2018-11-28T01:05:11.770Z,24.57
2018-11-28T01:07:40.698Z,23.43
2018-11-28T01:10:13.135Z,19.77
2018-11-28T01:12:41.814Z,21.60
2018-11-28T01:15:11.539Z,18.17
2018-11-28T01:17:40.105Z,19.17
2018-11-28T01:20:14.398Z,17.17
2018-11-28T01:22:44.389Z,17.00
2018-11-28T01:25:13.949Z,18.80
2018-11-28T01:27:43.000Z,16.13
2018-11-28T01:30:12.574Z,17.57
2018-11-28T01:32:41.141Z,14.67
2018-11-28T01:35:11.242Z,15.40
2018-11-28T01:37:39.987Z,16.33
2018-11-28T01:40:10.838Z,17.57
2018-11-28T01:42:39.758Z,16.83
2018-11-28T01:45:09.601Z,14.23
2018-11-28T01:47:38.181Z,15.97
2018-11-28T01:50:09.731Z,17.40
2018-11-28T01:52:39.012Z,14.30
2018-11-28T01:55:15.218Z,14.87
2018-11-28T01:57:44.278Z,13.53
2018-11-28T02:00:19.786Z,16.60
2018-11-28T02:02:52.373Z,14.00
2018-11-28T02:05:20.940Z,16.83
2018-11-28T02:07:49.499Z,15.83
2018-11-28T02:10:18.108Z,13.77
2018-11-28T02:12:46.706Z,15.03
2018-11-28T02:15:19.794Z,16.10
2018-11-28T02:17:48.418Z,13.53
2018-11-28T02:20:17.589Z,16.63
2018-11-28T02:22:46.494Z,14.37
2018-11-28T02:25:16.389Z,15.07
2018-11-28T02:27:45.310Z,16.37
2018-11-28T02:30:15.197Z,15.70
2018-11-28T02:32:44.037Z,14.67
2018-11-28T02:35:13.731Z,14.47
2018-11-28T02:37:42.443Z,12.47
2018-11-28T02:40:12.730Z,12.77
2018-11-28T02:42:41.915Z,11.97
2018-11-28T02:45:18.806Z,12.17
2018-11-28T02:47:47.369Z,11.67
2018-11-28T02:50:15.959Z,12.03
2018-11-28T02:52:44.537Z,11.13
2018-11-28T02:55:13.969Z,11.63
2018-11-28T02:57:44.195Z,10.30
2018-11-28T03:00:17.414Z,12.10
2018-11-28T03:02:45.975Z,11.43
2018-11-28T03:05:14.761Z,11.13
2018-11-28T03:07:43.391Z,12.67
2018-11-28T03:10:15.882Z,11.50
2018-11-28T03:12:44.488Z,12.70
2018-11-28T03:15:15.441Z,11.73
2018-11-28T03:17:44.538Z,11.57
2018-11-28T03:20:13.118Z,13.77
2018-11-28T03:22:41.677Z,15.33
2018-11-28T03:25:11.732Z,13.40
2018-11-28T03:27:40.683Z,13.90
2018-11-28T03:30:14.475Z,13.70
2018-11-28T03:32:43.159Z,15.20
2018-11-28T03:35:15.819Z,12.47
2018-11-28T03:37:44.516Z,14.13
2018-11-28T03:40:13.724Z,14.00
2018-11-28T03:42:42.514Z,13.40
2018-11-28T03:45:12.334Z,13.23
2018-11-28T03:47:41.161Z,13.13
2018-11-28T03:50:10.890Z,12.03
2018-11-28T03:52:39.774Z,12.00
2018-11-28T03:55:10.555Z,14.83
2018-11-28T03:57:39.143Z,14.47
2018-11-28T04:00:13.111Z,12.10
2018-11-28T04:02:41.729Z,15.23
2018-11-28T04:05:10.506Z,15.33
2018-11-28T04:07:39.111Z,14.63
2018-11-28T04:10:10.154Z,14.53
2018-11-28T04:12:39.276Z,13.33
2018-11-28T04:15:12.614Z,14.33
2018-11-28T04:17:41.242Z,14.43
2018-11-28T04:20:12.398Z,16.90
2018-11-28T04:22:41.123Z,15.83
2018-11-28T04:25:10.440Z,15.63
2018-11-28T04:27:39.298Z,17.30
2018-11-28T04:30:14.982Z,18.90
2018-11-28T04:32:43.534Z,18.90
2018-11-28T04:35:13.870Z,19.37
2018-11-28T04:37:43.010Z,19.17
2018-11-28T04:40:12.554Z,19.67
2018-11-28T04:42:41.533Z,20.97
2018-11-28T04:45:13.920Z,18.33
2018-11-28T04:47:42.612Z,18.23
2018-11-28T04:50:12.101Z,20.20
2018-11-28T04:52:40.738Z,19.40
2018-11-28T04:55:12.231Z,21.13
2018-11-28T04:57:40.826Z,20.27
2018-11-28T05:00:26.676Z,18.53
2018-11-28T05:02:56.707Z,18.80
2018-11-28T05:05:25.312Z,19.57
2018-11-28T05:07:54.152Z,18.83
2018-11-28T05:10:26.479Z,20.70
2018-11-28T05:12:55.729Z,18.80
2018-11-28T05:15:26.154Z,19.17
2018-11-28T05:17:54.878Z,18.23
2018-11-28T05:20:24.368Z,18.10
2018-11-28T05:22:52.930Z,16.43
2018-11-28T05:25:23.354Z,16.03
2018-11-28T05:27:52.746Z,19.13
2018-11-28T05:30:23.138Z,21.00
2018-11-28T05:32:51.724Z,17.77
2018-11-28T05:35:23.448Z,18.30
2018-11-28T05:37:52.010Z,20.00
2018-11-28T05:40:21.983Z,18.80
2018-11-28T05:42:50.586Z,19.00
2018-11-28T05:45:19.262Z,19.87
2018-11-28T05:47:47.862Z,19.13
2018-11-28T05:50:18.357Z,17.53
2018-11-28T05:52:47.054Z,21.97
2018-11-28T05:55:16.352Z,20.67
2018-11-28T05:57:44.965Z,18.53
2018-11-28T06:00:40.357Z,29.50
2018-11-28T06:03:10.864Z,21.30
2018-11-28T06:05:41.130Z,20.30
2018-11-28T06:08:09.902Z,28.30
2018-11-28T06:10:38.462Z,33.43
2018-11-28T06:13:07.104Z,31.47
2018-11-28T06:15:35.663Z,22.27
2018-11-28T06:18:04.219Z,20.40
2018-11-28T06:20:32.799Z,17.00
2018-11-28T06:23:01.431Z,20.37
2018-11-28T06:25:30.034Z,21.23
2018-11-28T06:27:58.583Z,20.67
2018-11-28T06:30:27.154Z,17.90
2018-11-28T06:32:55.734Z,20.73
2018-11-28T06:35:24.300Z,21.53
2018-11-28T06:37:52.842Z,20.93
2018-11-28T06:40:24.217Z,19.90
2018-11-28T06:42:50.018Z,22.33
2018-11-28T06:45:19.728Z,18.97
2018-11-28T06:47:48.307Z,21.57
2018-11-28T06:50:17.748Z,24.23
2018-11-28T06:52:47.499Z,19.70
2018-11-28T06:55:17.015Z,22.87
2018-11-28T06:57:45.582Z,22.37
2018-11-28T07:00:18.907Z,19.23
2018-11-28T07:02:48.134Z,17.23
2018-11-28T07:05:16.785Z,19.83
2018-11-28T07:07:45.366Z,20.80
2018-11-28T07:10:16.649Z,19.17
2018-11-28T07:12:45.223Z,19.27
2018-11-28T07:15:16.578Z,25.17
2018-11-28T07:17:45.246Z,20.20
2018-11-28T07:20:15.760Z,20.10
2018-11-28T07:22:44.351Z,24.47
2018-11-28T07:25:13.893Z,19.83
2018-11-28T07:27:44.982Z,18.13
2018-11-28T07:30:22.395Z,21.60
2018-11-28T07:32:52.245Z,17.17
2018-11-28T07:35:20.837Z,19.97
2018-11-28T07:37:49.414Z,20.83
2018-11-28T07:40:19.222Z,20.30
2018-11-28T07:42:55.582Z,21.57
2018-11-28T07:45:24.147Z,21.27
2018-11-28T07:47:52.759Z,18.67
2018-11-28T07:50:21.309Z,16.00
2018-11-28T07:52:49.866Z,20.50
2018-11-28T07:55:18.438Z,18.80
2018-11-28T07:57:47.011Z,18.47
2018-11-28T08:00:15.999Z,17.30
2018-11-28T08:02:44.874Z,17.97
2018-11-28T08:05:13.502Z,18.97
2018-11-28T08:07:42.079Z,17.47
2018-11-28T08:10:24.249Z,15.70
2018-11-28T08:12:53.810Z,16.60
2018-11-28T08:15:22.367Z,15.93
2018-11-28T08:17:51.131Z,15.17
2018-11-28T08:20:19.727Z,21.10
2018-11-28T08:22:48.297Z,17.60
2018-11-28T08:25:18.057Z,15.00
2018-11-28T08:27:47.746Z,18.00
2018-11-28T08:30:22.175Z,17.33
2018-11-28T08:32:50.915Z,17.10
2018-11-28T08:35:19.678Z,15.23
2018-11-28T08:37:48.230Z,27.83
2018-11-28T08:40:18.932Z,44.87
2018-11-28T08:42:47.534Z,35.07
2018-11-28T08:45:17.040Z,21.30
2018-11-28T08:47:46.581Z,15.90
2018-11-28T08:50:20.060Z,17.67
2018-11-28T08:52:48.658Z,21.07
2018-11-28T08:55:17.244Z,18.40
2018-11-28T08:57:45.852Z,18.70
2018-11-28T09:00:18.166Z,17.80
2018-11-28T09:02:47.758Z,23.43
2018-11-28T09:05:16.366Z,21.73
2018-11-28T09:07:44.932Z,17.83
2018-11-28T09:10:17.853Z,20.53
2018-11-28T09:12:46.942Z,17.27
2018-11-28T09:15:16.716Z,20.30
2018-11-28T09:17:45.507Z,18.70
2018-11-28T09:20:14.622Z,16.60
2018-11-28T09:22:43.250Z,19.53
2018-11-28T09:25:14.749Z,20.47
2018-11-28T09:27:44.218Z,21.73
2018-11-28T09:30:14.158Z,18.20
2018-11-28T09:32:42.746Z,23.13
2018-11-28T09:35:12.027Z,18.27
2018-11-28T09:37:45.453Z,19.27
2018-11-28T09:40:16.722Z,20.77
2018-11-28T09:42:45.414Z,20.30
2018-11-28T09:45:14.925Z,19.30
2018-11-28T09:47:43.827Z,22.63
2018-11-28T09:50:17.245Z,24.60
2018-11-28T09:52:45.930Z,22.27
2018-11-28T09:55:18.462Z,24.60
2018-11-28T09:57:47.197Z,26.27
2018-11-28T10:00:17.614Z,31.73
2018-11-28T10:02:46.218Z,29.83
2018-11-28T10:05:19.706Z,31.03
2018-11-28T10:07:48.438Z,31.27
2018-11-28T10:10:17.028Z,29.37
2018-11-28T10:12:45.623Z,27.50
2018-11-28T10:15:15.283Z,36.87
2018-11-28T10:17:44.051Z,30.00
2018-11-28T10:20:13.406Z,34.40
2018-11-28T10:22:42.110Z,30.13
2018-11-28T10:25:13.594Z,30.87
2018-11-28T10:27:42.503Z,30.77
2018-11-28T10:30:18.368Z,33.13
2018-11-28T10:32:47.288Z,35.90
2018-11-28T10:35:15.891Z,31.13
2018-11-28T10:37:44.475Z,37.20
2018-11-28T10:40:16.701Z,33.97
2018-11-28T10:42:45.734Z,46.80
2018-11-28T10:45:15.533Z,32.87
2018-11-28T10:47:44.127Z,38.50
2018-11-28T10:50:14.506Z,35.23
2018-11-28T10:52:43.178Z,34.37
2018-11-28T10:55:15.511Z,34.63
2018-11-28T10:57:44.234Z,33.77
2018-11-28T11:00:19.508Z,30.20
2018-11-28T11:02:53.478Z,35.50
2018-11-28T11:05:27.230Z,34.20
2018-11-28T11:08:01.254Z,31.60
2018-11-28T11:10:34.986Z,32.83
2018-11-28T11:15:11.714Z,36.87
2018-11-28T11:17:40.297Z,34.73
2018-11-28T11:20:09.049Z,32.27
2018-11-28T11:22:37.587Z,36.53
2018-11-28T11:25:06.660Z,38.20
2018-11-28T11:27:35.214Z,34.90
2018-11-28T11:30:03.895Z,36.80
2018-11-28T11:32:32.449Z,30.60
2018-11-28T11:35:01.020Z,35.70
2018-11-28T11:37:29.571Z,33.97
2018-11-28T11:39:58.111Z,37.17
2018-11-28T11:42:26.694Z,38.60
2018-11-28T11:44:55.257Z,36.27
2018-11-28T11:47:23.806Z,35.50
2018-11-28T11:49:52.370Z,38.90
2018-11-28T11:52:20.959Z,33.77
2018-11-28T11:54:49.542Z,39.70
2018-11-28T11:57:18.304Z,34.90
2018-11-28T11:59:46.870Z,32.87
2018-11-28T12:02:15.438Z,34.53
2018-11-28T12:04:43.965Z,38.77
2018-11-28T12:07:12.598Z,38.67
2018-11-28T12:09:41.179Z,45.43
2018-11-28T12:12:09.762Z,37.77
2018-11-28T12:14:38.316Z,53.87
2018-11-28T12:17:06.908Z,73.43
2018-11-28T12:19:35.466Z,48.47
2018-11-28T12:22:04.031Z,35.00
2018-11-28T12:24:32.598Z,46.17
2018-11-28T12:27:01.185Z,32.63
2018-11-28T12:29:29.800Z,48.73
2018-11-28T12:31:58.365Z,33.67
2018-11-28T12:34:26.964Z,34.10
2018-11-28T12:36:55.505Z,36.70
2018-11-28T12:39:24.072Z,37.10
2018-11-28T12:41:52.619Z,39.77
2018-11-28T12:44:21.188Z,39.03
2018-11-28T12:46:49.767Z,35.27
2018-11-28T12:49:18.306Z,40.10
2018-11-28T12:51:46.854Z,38.23
2018-11-28T12:54:15.450Z,34.47
2018-11-28T12:56:44.018Z,35.40
2018-11-28T12:59:12.578Z,38.57
2018-11-28T13:01:41.122Z,36.30
2018-11-28T13:04:09.678Z,32.67
2018-11-28T13:06:38.238Z,36.33
2018-11-28T13:09:07.633Z,28.57
2018-11-28T13:11:36.198Z,33.87
2018-11-28T13:14:04.790Z,34.87
2018-11-28T13:16:33.330Z,33.13
2018-11-28T13:19:01.926Z,29.60
2018-11-28T13:21:30.473Z,31.50
2018-11-28T13:23:59.020Z,34.07
2018-11-28T13:26:27.586Z,36.20
2018-11-28T13:28:56.134Z,32.23
2018-11-28T13:31:24.682Z,29.20
2018-11-28T13:33:53.235Z,35.37
2018-11-28T13:36:22.691Z,35.13
2018-11-28T13:38:50.374Z,36.47
2018-11-28T13:41:18.930Z,31.40
2018-11-28T13:43:47.494Z,35.87
2018-11-28T13:46:16.055Z,38.97
2018-11-28T13:48:44.614Z,35.03
2018-11-28T13:51:13.176Z,30.83
2018-11-28T13:53:41.727Z,30.30
2018-11-28T13:58:38.930Z,35.43
2018-11-28T14:01:07.523Z,32.73
2018-11-28T14:03:36.058Z,32.13
2018-11-28T14:06:04.826Z,33.27
2018-11-28T14:08:33.374Z,33.87
2018-11-28T14:11:01.938Z,34.00
2018-11-28T14:13:30.480Z,36.87
2018-11-28T14:15:59.042Z,40.97
2018-11-28T14:18:27.606Z,32.17
2018-11-28T14:20:56.167Z,34.60
2018-11-28T14:23:24.758Z,34.67
2018-11-28T14:25:53.316Z,35.67
2018-11-28T14:28:21.880Z,35.07
2018-11-28T14:30:50.444Z,36.63
2018-11-28T14:33:19.020Z,34.00
2018-11-28T14:35:47.595Z,35.80
2018-11-28T14:38:16.138Z,33.03
2018-11-28T14:40:45.578Z,31.63
2018-11-28T14:43:14.134Z,34.80
2018-11-28T14:45:42.822Z,32.93
2018-11-28T14:48:11.679Z,39.93
2018-11-28T14:50:40.406Z,37.20
2018-11-28T14:53:08.970Z,33.60
2018-11-28T14:55:38.845Z,39.23
2018-11-28T14:58:08.828Z,40.50
2018-11-28T15:00:37.470Z,40.50
2018-11-28T15:03:14.642Z,39.40
2018-11-28T15:07:52.692Z,55.37
2018-11-28T15:10:27.026Z,44.27
2018-11-28T15:12:55.704Z,41.53
2018-11-28T15:15:24.270Z,42.20
2018-11-28T15:17:52.866Z,42.83
2018-11-28T15:20:21.406Z,39.20
2018-11-28T15:22:50.074Z,39.50
2018-11-28T15:25:18.675Z,39.77
2018-11-28T15:27:47.237Z,42.57
2018-11-28T15:30:15.841Z,44.03
2018-11-28T15:32:44.390Z,48.17
2018-11-28T15:35:12.973Z,40.30
2018-11-28T15:37:41.558Z,43.47
2018-11-28T15:40:10.167Z,41.00
2018-11-28T15:42:38.734Z,42.73
2018-11-28T15:45:08.733Z,36.03
2018-11-28T15:47:37.371Z,56.53
2018-11-28T15:50:07.413Z,45.07
2018-11-28T15:52:35.993Z,36.40
2018-11-28T15:55:05.507Z,49.80
2018-11-28T15:57:34.050Z,53.53
2018-11-28T16:00:02.691Z,42.60
2018-11-28T16:02:31.246Z,39.03
2018-11-28T16:04:59.793Z,37.77
2018-11-28T16:07:28.358Z,43.43
2018-11-28T16:10:02.146Z,45.23
2018-11-28T16:12:30.819Z,48.37
2018-11-28T16:14:59.412Z,42.50
2018-11-28T16:17:27.972Z,63.47
2018-11-28T16:19:56.506Z,65.43
2018-11-28T16:22:25.086Z,79.10
2018-11-28T16:24:53.638Z,44.20
2018-11-28T16:27:22.206Z,44.73
2018-11-28T16:29:50.801Z,45.20
2018-11-28T16:32:19.410Z,43.30
2018-11-28T16:34:48.019Z,43.33
2018-11-28T16:37:16.607Z,41.43
2018-11-28T16:39:45.146Z,44.70
2018-11-28T16:42:13.807Z,43.73
2018-11-28T16:44:42.382Z,48.77
2018-11-28T16:47:10.951Z,46.87
2018-11-28T16:49:39.482Z,40.60
2018-11-28T16:52:08.044Z,44.90
2018-11-28T16:54:36.618Z,43.57
2018-11-28T16:57:05.210Z,41.10
2018-11-28T16:59:33.758Z,40.47
2018-11-28T17:02:02.353Z,41.73
2018-11-28T17:04:30.957Z,45.23
2018-11-28T17:06:59.519Z,38.83
2018-11-28T17:09:28.070Z,44.00
2018-11-28T17:11:56.627Z,57.90
2018-11-28T17:14:25.192Z,46.17
2018-11-28T17:16:53.791Z,45.77
2018-11-28T17:19:22.326Z,49.23
2018-11-28T17:21:50.902Z,50.63
2018-11-28T17:24:19.478Z,58.50
2018-11-28T17:26:48.054Z,53.27
2018-11-28T17:29:16.575Z,42.30
2018-11-28T17:31:45.123Z,37.60
2018-11-28T17:34:13.710Z,42.73
2018-11-28T17:36:42.276Z,45.17
2018-11-28T17:39:12.158Z,39.50
2018-11-28T17:41:41.046Z,39.07
2018-11-28T17:44:09.958Z,45.87
2018-11-28T17:46:38.526Z,42.53
2018-11-28T17:49:07.074Z,46.77
2018-11-28T17:51:35.614Z,68.70
2018-11-28T17:54:04.213Z,49.67
2018-11-28T17:56:32.786Z,42.23
2018-11-28T17:59:01.361Z,41.67
2018-11-28T18:01:29.907Z,37.43
2018-11-28T18:03:58.461Z,40.80
2018-11-28T18:06:27.014Z,40.87
2018-11-28T18:08:55.594Z,36.07
2018-11-28T18:11:24.191Z,38.80
2018-11-28T18:13:52.776Z,39.53
2018-11-28T18:16:21.330Z,43.83
2018-11-28T18:18:49.893Z,44.37
2018-11-28T18:21:18.466Z,47.03
2018-11-28T18:23:47.062Z,45.27
2018-11-28T18:26:16.054Z,43.80
2018-11-28T18:28:44.615Z,54.33
2018-11-28T18:31:13.170Z,51.20
2018-11-28T18:33:41.767Z,43.63
2018-11-28T18:36:10.320Z,37.67
2018-11-28T18:38:38.884Z,43.17
2018-11-28T18:41:07.460Z,37.13
2018-11-28T18:43:36.054Z,40.87
2018-11-28T18:46:04.651Z,42.90
2018-11-28T18:48:33.182Z,48.33
2018-11-28T18:51:01.773Z,37.70
2018-11-28T18:53:30.333Z,43.97
2018-11-28T18:55:58.890Z,48.20
2018-11-28T18:58:27.469Z,46.77
2018-11-28T19:00:56.026Z,37.37
2018-11-28T19:03:24.586Z,39.00
2018-11-28T19:05:53.149Z,39.57
2018-11-28T19:08:21.804Z,37.30
2018-11-28T19:10:50.417Z,37.10
2018-11-28T19:13:18.982Z,40.37
2018-11-28T19:15:47.539Z,33.10
2018-11-28T19:18:16.105Z,32.80
2018-11-28T19:20:44.650Z,36.57
2018-11-28T19:23:13.426Z,35.87
2018-11-28T19:25:41.974Z,37.07
2018-11-28T19:28:10.532Z,33.27
2018-11-28T19:30:41.639Z,31.97
2018-11-28T19:33:12.370Z,41.07
2018-11-28T19:35:40.950Z,35.90
2018-11-28T19:38:12.582Z,34.93
2018-11-28T19:40:47.339Z,47.83
2018-11-28T19:43:15.878Z,37.17
2018-11-28T19:45:44.546Z,35.33
2018-11-28T19:48:13.099Z,35.90
2018-11-28T19:50:41.794Z,33.43
2018-11-28T19:53:10.562Z,33.30
2018-11-28T19:55:39.502Z,33.87
2018-11-28T19:58:08.053Z,45.03
2018-11-28T20:00:37.510Z,35.73
2018-11-28T20:03:06.395Z,34.53
2018-11-28T20:05:34.986Z,33.30
2018-11-28T20:08:03.547Z,33.73
2018-11-28T20:10:32.483Z,39.27
2018-11-28T20:13:01.047Z,34.30
2018-11-28T20:15:30.442Z,41.47
2018-11-28T20:17:59.028Z,34.30
2018-11-28T20:20:27.570Z,28.93
2018-11-28T20:22:56.134Z,30.83
2018-11-28T20:25:25.206Z,35.60
2018-11-28T20:27:56.975Z,42.83
2018-11-28T20:30:31.679Z,36.77
2018-11-28T20:33:00.270Z,29.97
2018-11-28T20:35:28.867Z,33.93
2018-11-28T20:37:57.499Z,33.60
2018-11-28T20:40:26.114Z,31.97
2018-11-28T20:42:55.553Z,32.93
2018-11-28T20:45:24.169Z,36.87
2018-11-28T20:47:52.754Z,34.60
2018-11-28T20:50:24.818Z,33.17
2018-11-28T20:52:55.287Z,34.03
2018-11-28T20:55:23.627Z,36.43
2018-11-28T20:57:52.506Z,33.43
2018-11-28T21:00:22.326Z,38.00
2018-11-28T21:02:50.993Z,34.23
2018-11-28T21:05:19.582Z,36.70
2018-11-28T21:07:48.155Z,34.53
2018-11-28T21:10:22.266Z,35.80
2018-11-28T21:12:50.833Z,37.23
2018-11-28T21:15:19.405Z,34.70
2018-11-28T21:17:48.105Z,35.80
2018-11-28T21:20:19.723Z,31.47
2018-11-28T21:22:50.362Z,35.33
2018-11-28T21:25:18.926Z,36.47
2018-11-28T21:27:47.486Z,37.73
2018-11-28T21:30:17.299Z,37.10
2018-11-28T21:32:45.883Z,36.23
2018-11-28T21:35:17.644Z,34.00
2018-11-28T21:37:46.196Z,38.00
2018-11-28T21:40:14.794Z,38.60
2018-11-28T21:42:43.354Z,33.20
2018-11-28T21:45:13.078Z,40.30
2018-11-28T21:47:41.610Z,41.70
2018-11-28T21:50:18.025Z,38.17
2018-11-28T21:52:46.747Z,41.67
2018-11-28T21:55:18.177Z,40.17
2018-11-28T21:57:46.770Z,54.50
2018-11-28T22:00:16.286Z,38.63
2018-11-28T22:02:44.889Z,33.27
2018-11-28T22:05:14.173Z,42.80
2018-11-28T22:07:42.798Z,54.00
2018-11-28T22:10:16.271Z,47.77
2018-11-28T22:12:45.307Z,39.67
2018-11-28T22:15:15.711Z,69.77
2018-11-28T22:17:53.046Z,45.63
2018-11-28T22:20:21.840Z,74.17
2018-11-28T22:22:50.412Z,55.10
2018-11-28T22:25:23.612Z,77.03
2018-11-28T22:27:52.286Z,39.83
2018-11-28T22:30:25.121Z,32.57
2018-11-28T22:32:53.689Z,35.00
2018-11-28T22:35:22.330Z,48.60
2018-11-28T22:37:50.950Z,35.93
2018-11-28T22:40:20.665Z,75.30
2018-11-28T22:42:49.260Z,39.53
2018-11-28T22:45:19.020Z,42.27
2018-11-28T22:47:47.610Z,43.20
2018-11-28T22:50:16.384Z,37.13
2018-11-28T22:52:44.937Z,37.57
2018-11-28T22:55:17.069Z,36.07
2018-11-28T22:57:45.637Z,39.63
2018-11-28T23:00:17.979Z,40.67
2018-11-28T23:02:58.877Z,40.30
2018-11-28T23:05:29.479Z,38.33
2018-11-28T23:07:59.285Z,36.70
2018-11-28T23:10:28.189Z,36.37
2018-11-28T23:12:56.785Z,36.20
2018-11-28T23:15:25.379Z,38.03
2018-11-28T23:17:55.500Z,33.30
2018-11-28T23:20:22.658Z,33.10
2018-11-28T23:22:51.252Z,38.37
2018-11-28T23:25:19.919Z,32.40
2018-11-28T23:27:48.491Z,35.93
2018-11-28T23:30:18.925Z,32.20
2018-11-28T23:32:48.133Z,35.27
2018-11-28T23:35:16.866Z,33.30
2018-11-28T23:37:46.457Z,37.57
2018-11-28T23:40:16.673Z,36.37
2018-11-28T23:42:45.247Z,34.77
2018-11-28T23:45:14.706Z,35.63
2018-11-28T23:47:43.266Z,32.40
2018-11-28T23:50:14.699Z,34.57
2018-11-28T23:52:43.571Z,36.50
2018-11-28T23:55:17.218Z,36.60
2018-11-28T23:57:45.750Z,37.63
